Time;durP1;ratioP1;P1;durP2;ratioP2;P2;SDS_P1;SDS_P2;PMS_P1;PMS_P2;Temp;Humidity;BMP_temperature;BMP_pressure;BME280_temperature;BME280_humidity;BME280_pressure;Samples;Min_cycle;Max_cycle;Signal;HPM_P1;HPM_P2
2023/05/22 00:00:34;;;;;;;19.88;16.83;;;;;;;18.66;100.00;99979.31;6142303;23;20017;-89
2023/05/22 00:03:03;;;;;;;18.58;15.98;;;;;;;18.71;100.00;99998.53;6167982;23;20021;-89
2023/05/22 00:05:41;;;;;;;18.42;15.57;;;;;;;18.64;100.00;99997.34;6177162;23;20017;-88
2023/05/22 00:08:10;;;;;;;17.45;15.50;;;;;;;18.52;100.00;99981.31;6152429;23;20443;-89
2023/05/22 00:10:41;;;;;;;20.38;17.50;;;;;;;18.56;100.00;99989.97;6179953;23;20045;-88
2023/05/22 00:13:09;;;;;;;21.30;17.40;;;;;;;18.51;100.00;99989.50;6175479;23;20032;-85
2023/05/22 00:15:49;;;;;;;21.58;16.90;;;;;;;18.45;100.00;99995.38;6130155;23;20044;-84
2023/05/22 00:18:31;;;;;;;21.55;17.50;;;;;;;18.34;100.00;99985.59;6156496;23;20018;-86
2023/05/22 00:21:04;;;;;;;21.75;17.77;;;;;;;18.09;100.00;99953.81;6148521;23;20045;-87
2023/05/22 00:23:31;;;;;;;;;;;;;;;18.21;100.00;99983.09;6151794;23;20005;-85
2023/05/22 00:26:00;;;;;;;21.25;16.75;;;;;;;18.15;100.00;99972.91;6150450;23;19940;-85
2023/05/22 00:28:28;;;;;;;18.30;16.08;;;;;;;18.09;100.00;99973.44;6181807;23;20021;-86
2023/05/22 00:30:55;;;;;;;20.85;15.95;;;;;;;18.05;100.00;99963.94;6180132;23;20006;-87
2023/05/22 00:33:24;;;;;;;21.05;17.08;;;;;;;18.15;100.00;99977.41;6158189;23;20005;-87
2023/05/22 00:35:53;;;;;;;22.98;17.33;;;;;;;18.13;100.00;99979.34;6182412;23;20001;-88
2023/05/22 00:38:31;;;;;;;18.25;16.23;;;;;;;18.01;100.00;99959.81;6182136;23;20065;-87
2023/05/22 00:40:59;;;;;;;21.90;17.30;;;;;;;18.14;100.00;99970.34;6154115;23;20018;-87
2023/05/22 00:43:28;;;;;;;20.45;16.75;;;;;;;18.04;100.00;99961.41;6154936;23;20025;-85
2023/05/22 00:45:55;;;;;;;20.35;17.45;;;;;;;18.02;100.00;99960.66;6175804;23;20017;-85
2023/05/22 00:48:24;;;;;;;20.40;17.35;;;;;;;18.00;100.00;99955.44;6149705;23;20009;-86
2023/05/22 00:51:07;;;;;;;19.23;16.52;;;;;;;18.10;100.00;99976.97;6150898;23;20084;-86
2023/05/22 00:53:35;;;;;;;19.40;17.27;;;;;;;18.08;100.00;99976.25;6141230;23;20041;-88
2023/05/22 00:56:02;;;;;;;19.50;15.98;;;;;;;18.05;100.00;99979.16;6170834;23;20073;-87
2023/05/22 00:58:29;;;;;;;21.00;16.13;;;;;;;17.89;100.00;99955.50;6170640;23;20040;-85
2023/05/22 01:00:58;;;;;;;19.75;16.80;;;;;;;18.04;100.00;99986.34;6172041;23;20022;-86
2023/05/22 01:03:28;;;;;;;21.43;17.03;;;;;;;17.97;100.00;99976.28;6173178;23;20017;-87
2023/05/22 01:05:58;;;;;;;19.13;16.35;;;;;;;17.99;100.00;99966.28;6170194;23;20452;-87
2023/05/22 01:08:26;;;;;;;22.80;16.92;;;;;;;17.91;100.00;99971.44;6165196;23;20020;-86
2023/05/22 01:11:27;;;;;;;19.35;17.05;;;;;;;17.95;100.00;99978.22;6173025;23;20024;-86
2023/05/22 01:14:16;;;;;;;20.25;16.63;;;;;;;17.90;100.00;99978.63;6175393;23;20040;-88
2023/05/22 01:17:07;;;;;;;23.50;16.85;;;;;;;17.87;100.00;99982.41;6158491;23;20037;-85
2023/05/22 01:20:17;;;;;;;18.25;16.15;;;;;;;17.72;100.00;99958.75;6182078;23;20020;-86
2023/05/22 01:23:17;;;;;;;20.48;17.60;;;;;;;17.86;100.00;99991.44;6117395;23;20022;-86
2023/05/22 01:26:25;;;;;;;18.70;15.10;;;;;;;17.86;100.00;99994.09;6174279;23;20017;-86
2023/05/22 01:29:18;;;;;;;20.83;15.98;;;;;;;17.83;100.00;99990.81;6142901;23;20024;-85
2023/05/22 01:31:47;;;;;;;19.23;15.32;;;;;;;17.79;100.00;99982.19;6176078;23;20013;-86
2023/05/22 01:34:19;;;;;;;17.95;15.80;;;;;;;17.80;100.00;99985.72;6193897;23;20024;-86
2023/05/22 01:36:48;;;;;;;18.88;15.15;;;;;;;17.80;100.00;99991.06;6196220;23;20013;-87
2023/05/22 01:39:18;;;;;;;18.65;16.27;;;;;;;17.80;100.00;99997.28;6195493;23;20356;-88
2023/05/22 01:41:53;;;;;;;18.75;16.15;;;;;;;17.80;100.00;99991.94;6169137;23;20016;-88
2023/05/22 01:44:34;;;;;;;21.25;15.75;;;;;;;17.78;100.00;99982.34;6192413;23;20013;-90
2023/05/22 01:47:04;;;;;;;19.25;16.27;;;;;;;17.68;100.00;99968.84;6168358;23;20037;-88
2023/05/22 01:49:43;;;;;;;;;;;;;;;17.77;100.00;99992.22;6195068;23;20017;-89
2023/05/22 01:52:42;;;;;;;19.45;15.27;;;;;;;17.76;100.00;99993.19;6170723;23;19912;-89
2023/05/22 01:55:34;;;;;;;18.63;15.73;;;;;;;17.63;100.00;99979.06;6194120;23;20017;-89
2023/05/22 01:58:15;;;;;;;19.17;16.77;;;;;;;17.63;100.00;99984.41;6208737;23;20073;-89
2023/05/22 02:00:46;;;;;;;19.65;16.30;;;;;;;17.60;100.00;99984.69;6207118;23;20029;-89
2023/05/22 02:03:35;;;;;;;19.00;16.13;;;;;;;17.53;100.00;99989.69;6196975;23;20014;-89
2023/05/22 02:06:08;;;;;;;17.95;15.85;;;;;;;17.49;100.00;99982.03;6194111;23;20434;-89
2023/05/22 02:08:38;;;;;;;19.92;15.80;;;;;;;17.45;100.00;99984.13;6167740;23;20376;-88
2023/05/22 02:11:08;;;;;;;20.38;17.02;;;;;;;17.46;100.00;99990.31;6195532;23;20013;-88
2023/05/22 02:13:38;;;;;;;20.02;16.00;;;;;;;17.38;100.00;99990.94;6174963;23;20005;-87
2023/05/22 02:16:06;;;;;;;19.75;16.98;;;;;;;17.39;100.00;99986.44;6147958;23;20040;-88
2023/05/22 02:18:36;;;;;;;18.90;16.15;;;;;;;17.38;100.00;99995.44;6192966;23;20052;-88
2023/05/22 02:21:10;;;;;;;19.60;16.25;;;;;;;17.36;100.00;99992.03;6195531;23;20021;-88
2023/05/22 02:23:40;;;;;;;20.05;16.58;;;;;;;17.28;100.00;99973.94;6196017;23;20363;-87
2023/05/22 02:26:08;;;;;;;19.10;15.95;;;;;;;17.28;100.00;99990.00;6169407;23;20096;-88
2023/05/22 02:28:34;;;;;;;18.08;16.17;;;;;;;17.20;100.00;99981.72;6168417;23;20017;-88
2023/05/22 02:31:19;;;;;;;18.38;15.70;;;;;;;17.23;100.00;99988.66;6143911;23;20041;-87
2023/05/22 02:33:47;;;;;;;20.77;15.75;;;;;;;17.21;100.00;99980.75;6163813;23;20017;-88
2023/05/22 02:36:16;;;;;;;18.77;15.50;;;;;;;17.21;100.00;99986.09;6166082;23;20013;-86
2023/05/22 02:38:47;;;;;;;18.42;14.88;;;;;;;17.16;100.00;99980.25;6162998;23;20382;-86
2023/05/22 02:41:17;;;;;;;18.90;15.02;;;;;;;16.98;100.00;99949.66;6139062;23;20040;-87
2023/05/22 02:43:45;;;;;;;17.35;15.40;;;;;;;17.24;100.00;99987.69;6164441;23;20021;-87
2023/05/22 02:46:15;;;;;;;18.88;15.45;;;;;;;17.22;100.00;99986.94;6163507;23;20010;-87
2023/05/22 02:48:45;;;;;;;19.50;15.77;;;;;;;17.18;100.00;99984.53;6139986;23;20029;-87
2023/05/22 02:51:15;;;;;;;18.00;15.00;;;;;;;17.17;100.00;99998.88;6164038;23;20022;-87
2023/05/22 02:53:47;;;;;;;17.77;14.82;;;;;;;17.17;100.00;99984.63;6140647;23;20017;-88
2023/05/22 02:56:17;;;;;;;19.55;15.10;;;;;;;17.13;100.00;99983.22;6164234;23;20022;-87
2023/05/22 02:58:44;;;;;;;17.42;14.82;;;;;;;17.07;100.00;99971.16;6166077;23;20435;-88
2023/05/22 03:01:13;;;;;;;20.48;14.52;;;;;;;17.18;100.00;99986.34;6139344;23;20022;-88
2023/05/22 03:03:40;;;;;;;18.73;15.80;;;;;;;17.12;100.00;99973.47;6141154;23;20040;-88
2023/05/22 03:06:09;;;;;;;18.23;15.55;;;;;;;17.10;100.00;99981.63;6166683;23;20017;-89
2023/05/22 03:08:42;;;;;;;18.77;14.75;;;;;;;17.17;100.00;99993.53;6142045;23;20020;-88
2023/05/22 03:11:09;;;;;;;18.70;15.43;;;;;;;17.14;100.00;99982.25;6141211;23;20066;-88
2023/05/22 03:13:37;;;;;;;18.45;15.15;;;;;;;17.17;100.00;99984.63;6165916;23;20020;-88
2023/05/22 03:16:06;;;;;;;18.88;15.02;;;;;;;17.12;100.00;99984.19;6115213;23;20017;-89
2023/05/22 03:18:35;;;;;;;18.30;15.65;;;;;;;17.14;100.00;99987.59;6165714;23;20013;-87
2023/05/22 03:21:05;;;;;;;19.33;15.68;;;;;;;16.97;100.00;99956.84;6165216;23;20547;-87
2023/05/22 03:23:39;;;;;;;18.38;15.88;;;;;;;17.14;100.00;99992.94;6165395;23;20025;-88
2023/05/22 03:26:11;;;;;;;17.85;15.05;;;;;;;17.17;100.00;99990.00;6166168;23;20021;-86
2023/05/22 03:28:38;;;;;;;19.38;16.00;;;;;;;17.19;100.00;99993.41;6167966;23;20017;-87
2023/05/22 03:31:09;;;;;;;17.92;15.13;;;;;;;17.17;100.00;99998.03;6171864;23;20028;-86
2023/05/22 03:33:50;;;;;;;17.05;14.68;;;;;;;17.15;100.00;100003.53;6181504;23;20047;-87
2023/05/22 03:36:35;;;;;;;19.48;15.93;;;;;;;16.95;100.00;99980.19;6189727;23;20044;-86
2023/05/22 03:39:03;;;;;;;21.20;16.40;;;;;;;16.96;100.00;99999.75;6186402;23;20120;-87
2023/05/22 03:41:32;;;;;;;20.58;15.65;;;;;;;16.93;100.00;100006.19;6193905;23;20330;-85
2023/05/22 03:44:01;;;;;;;18.98;15.68;;;;;;;16.93;100.00;100002.66;6165912;23;20449;-86
2023/05/22 03:46:34;;;;;;;16.92;15.00;;;;;;;16.85;100.00;99989.88;6164159;23;20031;-86
2023/05/22 03:49:16;;;;;;;19.85;15.23;;;;;;;16.84;100.00;99982.88;6180841;23;20088;-86
2023/05/22 03:51:57;;;;;;;17.33;14.80;;;;;;;16.84;100.00;99989.03;6165467;23;20075;-86
2023/05/22 03:54:25;;;;;;;17.08;14.75;;;;;;;16.87;100.00;99990.63;6195695;23;20009;-86
2023/05/22 03:56:55;;;;;;;17.77;14.63;;;;;;;16.87;100.00;99992.44;6196480;23;20017;-87
2023/05/22 03:59:23;;;;;;;19.27;15.45;;;;;;;16.86;100.00;99993.41;6202361;23;20052;-85
2023/05/22 04:01:50;;;;;;;19.40;15.50;;;;;;;16.89;100.00;99988.69;6159855;23;20071;-86
2023/05/22 04:04:17;;;;;;;18.13;15.70;;;;;;;16.80;100.00;99971.56;6197070;23;20039;-87
2023/05/22 04:06:50;;;;;;;18.48;15.15;;;;;;;16.92;100.00;99991.13;6171416;23;20020;-87
2023/05/22 04:09:34;;;;;;;17.65;15.15;;;;;;;16.89;100.00;99990.50;6197212;23;20036;-88
2023/05/22 04:12:02;;;;;;;18.25;15.43;;;;;;;16.78;100.00;99975.31;6194757;23;20017;-86
2023/05/22 04:14:29;;;;;;;18.02;15.25;;;;;;;16.72;100.00;99967.78;6169539;23;20068;-86
2023/05/22 04:16:57;;;;;;;17.83;15.38;;;;;;;16.91;100.00;99997.44;6194062;23;20040;-85
2023/05/22 04:19:24;;;;;;;19.58;15.20;;;;;;;16.95;100.00;99992.69;6139014;23;20073;-84
2023/05/22 04:21:56;;;;;;;18.27;15.37;;;;;;;16.96;100.00;99997.94;6189576;23;20047;-84
2023/05/22 04:24:31;;;;;;;20.27;16.13;;;;;;;17.01;100.00;100002.91;6191661;23;20072;-84
2023/05/22 04:26:59;;;;;;;22.40;15.77;;;;;;;17.00;100.00;99994.00;6192042;23;20060;-85
2023/05/22 04:29:27;;;;;;;17.05;14.30;;;;;;;17.00;100.00;99990.53;6192502;23;20016;-85
2023/05/22 04:31:54;;;;;;;20.13;16.08;;;;;;;17.09;100.00;99990.63;6167052;23;20104;-85
2023/05/22 04:34:28;;;;;;;23.52;16.23;;;;;;;17.08;100.00;99982.72;6193226;23;20021;-85
2023/05/22 04:37:02;;;;;;;16.83;14.30;;;;;;;17.04;100.00;99975.91;6194593;23;20315;-84
2023/05/22 04:39:30;;;;;;;18.02;14.88;;;;;;;17.11;100.00;99990.50;6167978;23;20100;-85
2023/05/22 04:42:14;;;;;;;17.13;14.30;;;;;;;17.08;100.00;99986.25;6192902;23;20048;-85
2023/05/22 04:44:43;;;;;;;16.98;15.18;;;;;;;17.28;100.00;100011.41;6167571;23;20044;-85
2023/05/22 04:47:13;;;;;;;17.48;14.65;;;;;;;17.31;100.00;100007.63;6168073;23;20009;-85
2023/05/22 04:49:55;;;;;;;16.55;14.65;;;;;;;17.19;100.00;99986.22;6193615;23;20055;-85
2023/05/22 04:52:26;;;;;;;19.42;15.57;;;;;;;17.44;100.00;100017.22;6192763;23;20017;-84
2023/05/22 04:54:55;;;;;;;19.75;15.52;;;;;;;17.48;100.00;100015.13;6192521;23;20019;-85
2023/05/22 04:57:28;;;;;;;18.17;15.05;;;;;;;17.45;100.00;100004.69;6169256;23;20027;-84
2023/05/22 04:59:58;;;;;;;19.55;14.57;;;;;;;17.57;100.00;100016.22;6195180;23;20009;-85
2023/05/22 05:02:27;;;;;;;17.02;14.93;;;;;;;17.60;100.00;100014.13;6192421;23;20013;-84
2023/05/22 05:05:08;;;;;;;17.17;14.48;;;;;;;17.66;100.00;100020.84;6168502;23;20013;-85
2023/05/22 05:07:49;;;;;;;17.25;13.95;;;;;;;17.72;100.00;100018.50;6171475;23;20028;-84
2023/05/22 05:10:31;;;;;;;20.15;15.23;;;;;;;17.75;100.00;100023.63;6176748;23;20017;-86
2023/05/22 05:12:59;;;;;;;18.02;14.73;;;;;;;17.80;100.00;100018.72;6194844;23;20016;-84
2023/05/22 05:15:28;;;;;;;24.13;14.98;;;;;;;17.88;100.00;100020.78;6169892;23;20021;-83
2023/05/22 05:17:55;;;;;;;21.48;15.85;;;;;;;17.99;100.00;100018.03;6199401;23;20031;-84
2023/05/22 05:20:23;;;;;;;19.58;14.38;;;;;;;18.09;100.00;100028.84;6199399;23;20013;-85
2023/05/22 05:22:51;;;;;;;19.30;15.10;;;;;;;18.16;100.00;100020.16;6171512;23;20073;-85
2023/05/22 05:25:41;;;;;;;19.33;15.90;;;;;;;18.23;100.00;100025.84;6065043;23;20019;-84
2023/05/22 05:28:12;;;;;;;18.27;14.88;;;;;;;18.36;100.00;100026.50;6118214;23;20022;-84
2023/05/22 05:30:40;;;;;;;15.85;14.10;;;;;;;18.47;100.00;100021.06;6143401;23;20050;-84
2023/05/22 05:33:22;;;;;;;17.60;13.60;;;;;;;18.64;100.00;100024.19;6142082;23;20022;-85
2023/05/22 05:35:51;;;;;;;26.52;16.90;;;;;;;18.76;100.00;100029.31;6139411;23;20105;-85
2023/05/22 05:38:25;;;;;;;16.20;13.73;;;;;;;18.88;100.00;100027.44;6137271;23;20029;-85
2023/05/22 05:40:57;;;;;;;17.73;13.60;;;;;;;18.86;100.00;100005.25;6130395;23;20463;-84
2023/05/22 05:43:50;;;;;;;16.45;14.20;;;;;;;19.07;100.00;100023.97;6151536;23;20025;-85
2023/05/22 05:46:40;;;;;;;15.88;13.43;;;;;;;19.24;100.00;100040.28;6111384;23;20024;-85
2023/05/22 05:49:30;;;;;;;15.13;13.13;;;;;;;19.35;100.00;100038.50;6126123;23;20029;-84
2023/05/22 05:52:01;;;;;;;17.52;13.75;;;;;;;19.24;100.00;100016.13;6113069;23;20097;-85
2023/05/22 05:54:46;;;;;;;18.30;13.65;;;;;;;19.31;100.00;100012.91;6114031;23;20101;-83
2023/05/22 05:57:21;;;;;;;15.13;13.40;;;;;;;19.45;100.00;100024.09;6172382;23;20060;-84
2023/05/22 05:59:53;;;;;;;14.33;12.80;;;;;;;19.59;100.00;100047.06;6177510;23;20128;-83
2023/05/22 06:02:28;;;;;;;16.40;12.43;;;;;;;19.67;100.00;100025.75;6206369;22;20081;-84
2023/05/22 06:05:09;;;;;;;15.48;13.43;;;;;;;19.95;100.00;100049.09;6180972;23;20017;-84
2023/05/22 06:07:38;;;;;;;15.55;12.48;;;;;;;20.11;100.00;100045.88;6179146;23;20017;-84
2023/05/22 06:10:11;;;;;;;16.15;12.90;;;;;;;20.16;100.00;100032.81;6199040;23;20017;-85
2023/05/22 06:12:44;;;;;;;14.70;12.80;;;;;;;20.42;100.00;100051.13;6177347;23;20021;-87
2023/05/22 06:15:26;;;;;;;14.38;11.77;;;;;;;20.64;100.00;100048.09;6168507;23;20017;-85
2023/05/22 06:18:08;;;;;;;14.45;12.20;;;;;;;20.72;95.98;100029.41;6198406;23;20020;-84
2023/05/22 06:24:24;;;;;;;15.30;12.82;;;;;;;21.31;91.53;100028.19;6204988;23;20052;-85
2023/05/22 06:27:15;;;;;;;14.10;11.88;;;;;;;21.69;85.51;100051.41;6184748;23;20029;-84
2023/05/22 06:30:01;;;;;;;13.00;11.20;;;;;;;21.79;86.64;100035.16;6075830;23;20018;-86
2023/05/22 06:32:33;;;;;;;14.57;11.38;;;;;;;22.08;84.89;100052.00;6097481;23;20037;-85
2023/05/22 06:35:05;;;;;;;19.48;12.77;;;;;;;22.27;86.48;100051.00;6072698;23;20090;-84
2023/05/22 06:37:42;;;;;;;16.85;11.98;;;;;;;22.31;82.49;100047.84;6057284;23;20023;-84
2023/05/22 06:40:11;;;;;;;17.90;12.07;;;;;;;22.27;83.41;100040.19;6078491;23;20057;-85
2023/05/22 06:42:39;;;;;;;21.00;12.20;;;;;;;22.23;84.84;100014.53;6049818;23;20022;-85
2023/05/22 06:45:11;;;;;;;13.07;11.50;;;;;;;22.63;84.04;100049.09;6049671;23;20015;-85
2023/05/22 06:47:54;;;;;;;14.90;11.88;;;;;;;22.64;83.81;100016.56;6071435;23;20074;-85
2023/05/22 06:50:30;;;;;;;14.52;11.70;;;;;;;22.99;80.17;100042.59;6052611;23;20018;-86
2023/05/22 06:53:02;;;;;;;14.70;11.82;;;;;;;23.29;79.86;100052.06;6052602;23;20385;-85
2023/05/22 06:55:33;;;;;;;14.85;12.30;;;;;;;23.35;77.29;100042.44;6073311;23;20105;-86
2023/05/22 06:57:59;;;;;;;21.55;12.60;;;;;;;23.36;73.17;100026.06;6075179;23;20065;-86
2023/05/22 07:00:40;;;;;;;15.07;11.93;;;;;;;23.56;71.13;100063.69;6099142;23;20025;-86
2023/05/22 07:03:33;;;;;;;18.13;12.60;;;;;;;23.49;76.92;100049.09;6175951;23;20045;-85
2023/05/22 07:06:40;;;;;;;14.98;11.95;;;;;;;23.50;75.36;100046.22;6177734;23;20044;-85
2023/05/22 07:09:26;;;;;;;15.77;12.25;;;;;;;23.50;74.30;100057.03;6166937;23;20021;-85
2023/05/22 07:11:55;;;;;;;15.63;11.20;;;;;;;23.61;74.76;100037.84;6162038;23;20024;-85
2023/05/22 07:19:03;;;;;;;16.88;12.18;;;;;;;24.00;69.96;100064.31;6149013;23;20073;-84
2023/05/22 07:21:53;;;;;;;14.10;11.55;;;;;;;23.89;72.31;100035.72;6166810;23;20017;-85
2023/05/22 07:24:34;;;;;;;15.35;12.25;;;;;;;24.25;65.60;100054.38;6152174;23;20021;-85
2023/05/22 07:27:39;;;;;;;12.25;10.65;;;;;;;24.50;67.10;100066.09;6167821;23;20025;-85
2023/05/22 07:30:30;;;;;;;16.00;11.65;;;;;;;24.83;66.00;100056.91;6165076;23;20021;-85
2023/05/22 07:33:14;;;;;;;15.60;11.70;;;;;;;25.35;64.20;100062.72;6204529;23;20017;-85
2023/05/22 07:36:05;;;;;;;12.52;10.77;;;;;;;25.45;57.08;100021.88;6198588;23;20017;-84
2023/05/22 07:38:57;;;;;;;13.43;11.45;;;;;;;25.77;57.71;100056.13;6099888;23;20049;-84
2023/05/22 07:45:25;;;;;;;19.60;11.70;;;;;;;25.53;58.61;100049.78;6116344;23;20038;-85
2023/05/22 07:48:38;;;;;;;13.80;10.93;;;;;;;25.47;61.25;100052.34;6117060;23;20097;-85
2023/05/22 07:51:30;;;;;;;13.02;11.07;;;;;;;25.51;58.28;100051.81;6141881;23;20056;-85
2023/05/22 07:54:35;;;;;;;13.30;12.00;;;;;;;25.76;60.08;100057.16;6128851;23;20010;-84
2023/05/22 07:57:16;;;;;;;14.38;11.45;;;;;;;25.72;56.65;100064.78;6069656;23;20529;-85
2023/05/22 07:59:55;;;;;;;12.02;10.73;;;;;;;25.70;56.70;100061.41;6090715;23;20026;-85
2023/05/22 08:02:37;;;;;;;31.25;12.68;;;;;;;25.86;56.00;100063.19;6093049;23;20026;-84
2023/05/22 08:05:36;;;;;;;15.10;11.15;;;;;;;25.84;56.43;100051.66;6088811;23;20057;-86
2023/05/22 08:08:16;;;;;;;13.95;11.65;;;;;;;25.67;55.29;100072.59;6092758;23;20019;-84
2023/05/22 08:10:48;;;;;;;16.70;11.23;;;;;;;25.79;53.62;100062.22;6093191;23;20006;-83
2023/05/22 08:13:31;;;;;;;12.10;10.75;;;;;;;25.80;57.05;100066.63;6118976;23;20020;-84
2023/05/22 08:34:29;;;;;;;12.73;10.68;;;;;;;25.80;55.79;100036.81;4930638;28;20059;-85
2023/05/22 09:01:12;;;;;;;12.25;10.95;;;;;;;25.86;56.61;100045.03;4947649;29;20054;-85
2023/05/22 09:03:59;;;;;;;13.85;12.00;;;;;;;25.85;53.38;100001.81;4945038;29;20059;-85
2023/05/22 09:06:46;;;;;;;;;;;;;;;25.97;53.88;100040.25;4945591;29;20051;-85
2023/05/22 09:09:40;;;;;;;14.00;10.88;;;;;;;25.96;55.15;100020.41;4906459;29;19967;-86
2023/05/22 09:16:39;;;;;;;14.23;11.50;;;;;;;26.14;53.57;100033.66;4928600;29;20044;-88
2023/05/22 09:20:43;;;;;;;13.02;11.63;;;;;;;25.50;57.04;100036.56;4950761;29;20177;-85
2023/05/22 09:26:51;;;;;;;15.13;12.40;;;;;;;25.38;59.27;100029.84;4920093;29;20055;-87
2023/05/22 09:30:09;;;;;;;14.27;12.70;;;;;;;25.26;60.36;100020.41;4897577;29;20074;-86
2023/05/22 09:32:51;;;;;;;14.25;12.70;;;;;;;25.31;59.62;100028.03;4853752;29;20054;-86
2023/05/22 09:35:38;;;;;;;16.27;12.18;;;;;;;25.23;59.97;100026.19;4907779;29;20046;-86
2023/05/22 09:38:18;;;;;;;15.05;12.82;;;;;;;25.10;59.62;100005.06;4929829;29;20051;-86
2023/05/22 09:45:27;;;;;;;18.77;12.20;;;;;;;25.35;58.79;100024.78;4972418;29;20086;-86
2023/05/22 09:56:12;;;;;;;17.38;12.55;;;;;;;25.69;56.00;100018.19;4948903;29;20050;-86
2023/05/22 09:58:46;;;;;;;14.40;12.77;;;;;;;25.51;54.54;100005.72;4936557;29;20042;-85
2023/05/22 10:01:46;;;;;;;18.42;13.45;;;;;;;25.49;56.70;100023.22;4954261;29;20038;-84
2023/05/22 10:08:37;;;;;;;13.43;11.68;;;;;;;25.71;52.66;100029.72;4876939;29;20033;-86
2023/05/22 10:12:26;;;;;;;13.13;11.60;;;;;;;25.97;53.50;100016.69;4927751;29;20173;-86
2023/05/22 10:15:41;;;;;;;13.25;11.85;;;;;;;26.30;52.67;100000.16;4952535;29;20099;-85
2023/05/22 10:26:45;;;;;;;14.32;11.38;;;;;;;27.05;48.10;100011.84;4949040;29;20079;-85
2023/05/22 10:29:50;;;;;;;12.75;11.35;;;;;;;26.59;49.06;100012.97;4955219;29;20462;-84
2023/05/22 10:32:56;;;;;;;15.95;13.35;;;;;;;26.24;49.71;100009.00;4934283;29;20051;-85
2023/05/22 10:35:47;;;;;;;33.35;14.15;;;;;;;26.22;51.43;100003.75;4941508;29;20060;-85
2023/05/22 10:38:54;;;;;;;14.80;12.48;;;;;;;26.29;50.36;99984.91;4949501;29;20063;-86
2023/05/22 10:41:36;;;;;;;14.25;12.75;;;;;;;26.48;50.05;99996.09;4930363;29;20513;-87
2023/05/22 10:44:21;;;;;;;13.73;12.27;;;;;;;26.28;50.30;99966.91;4932051;29;20044;-87
2023/05/22 10:46:52;;;;;;;19.17;12.90;;;;;;;26.56;50.54;99981.59;4931909;29;20055;-86
2023/05/22 10:49:48;;;;;;;15.77;12.77;;;;;;;26.42;49.43;99964.25;4921226;29;20083;-87
2023/05/22 10:52:30;;;;;;;18.60;12.63;;;;;;;26.12;50.83;99949.75;4922973;29;20390;-84
2023/05/22 10:55:09;;;;;;;14.93;13.20;;;;;;;26.50;51.25;99966.03;4911757;29;20554;-86
2023/05/22 11:02:00;;;;;;;16.75;11.82;;;;;;;27.40;46.81;99980.28;4911709;29;20056;-85
2023/05/22 11:08:30;;;;;;;15.30;12.55;;;;;;;27.25;46.83;99974.88;4925079;29;20136;-85
2023/05/22 11:26:24;;;;;;;;;;;;;;;27.62;45.33;99974.94;4952360;29;20115;-86
2023/05/22 11:29:58;;;;;;;13.63;12.20;;;;;;;27.82;44.39;99973.28;4945358;29;19919;-86
2023/05/22 11:33:20;;;;;;;14.55;12.73;;;;;;;28.04;43.54;99949.59;5102524;28;24518;-86
2023/05/22 11:36:09;;;;;;;13.02;11.73;;;;;;;28.33;43.54;99956.81;5100621;28;20134;-85
2023/05/22 11:42:33;;;;;;;13.02;11.10;;;;;;;28.53;43.34;99960.50;5105823;28;20047;-85
2023/05/22 11:49:17;;;;;;;16.02;12.00;;;;;;;28.63;43.29;99948.25;5102006;28;20054;-86
2023/05/22 11:52:11;;;;;;;15.73;11.85;;;;;;;28.75;42.86;99940.34;5103313;28;20047;-86
2023/05/22 11:54:52;;;;;;;17.67;12.10;;;;;;;28.82;42.33;99930.34;5102524;28;20044;-86
2023/05/22 11:57:35;;;;;;;15.77;12.75;;;;;;;28.96;41.26;99936.72;5099521;28;20052;-86
2023/05/22 12:04:26;;;;;;;12.82;11.52;;;;;;;28.67;41.52;99929.59;5110587;28;20042;-86
2023/05/22 12:07:16;;;;;;;12.85;11.55;;;;;;;28.44;41.58;99931.75;5101766;28;20037;-85
2023/05/22 12:09:58;;;;;;;13.25;10.95;;;;;;;28.42;41.46;99903.88;5104877;28;20124;-85
2023/05/22 12:12:49;;;;;;;13.75;11.00;;;;;;;28.73;41.49;99923.34;5100534;28;20083;-85
2023/05/22 12:23:06;;;;;;;11.20;10.20;;;;;;;28.97;40.45;99920.16;5103435;28;20081;-87
2023/05/22 12:25:38;;;;;;;12.25;10.95;;;;;;;28.80;41.12;99913.38;5102703;28;20066;-85
2023/05/22 12:28:22;;;;;;;12.30;10.77;;;;;;;28.71;41.70;99913.69;5103135;28;20060;-85
2023/05/22 12:30:57;;;;;;;12.88;10.88;;;;;;;28.72;41.32;99894.41;5100091;28;20044;-87
2023/05/22 12:33:27;;;;;;;14.85;11.15;;;;;;;28.81;40.27;99897.84;5084583;28;20102;-84
2023/05/22 12:35:59;;;;;;;14.98;11.57;;;;;;;28.77;40.85;99859.25;5099826;28;20036;-85
2023/05/22 12:38:30;;;;;;;16.40;11.40;;;;;;;29.18;40.18;99891.94;5100755;28;20044;-86
2023/05/22 12:41:07;;;;;;;14.20;12.13;;;;;;;29.35;39.78;99897.00;5085162;28;20040;-86
2023/05/22 12:43:35;;;;;;;;;;;;;;;29.49;40.71;99899.59;5092346;28;20049;-86
2023/05/22 12:46:46;;;;;;;13.27;11.68;;;;;;;29.70;39.60;99895.03;5086333;28;19916;-86
2023/05/22 12:54:07;;;;;;;13.95;11.65;;;;;;;29.38;40.63;99885.69;5061139;28;20474;-85
2023/05/22 12:56:49;;;;;;;12.75;11.52;;;;;;;29.26;40.27;99885.47;5081587;28;20064;-87
2023/05/22 12:59:30;;;;;;;13.45;11.75;;;;;;;29.09;40.00;99890.44;5068054;28;20041;-85
2023/05/22 13:02:01;;;;;;;13.95;11.85;;;;;;;29.12;40.07;99861.94;5068013;28;20045;-85
2023/05/22 13:04:55;;;;;;;12.48;11.15;;;;;;;29.62;39.79;99879.69;5066677;28;20393;-86
2023/05/22 13:07:30;;;;;;;13.77;10.65;;;;;;;29.76;39.60;99892.28;5051558;28;20132;-85
2023/05/22 13:10:17;;;;;;;14.68;10.75;;;;;;;29.66;39.46;99889.16;5067490;28;20053;-85
2023/05/22 13:13:04;;;;;;;13.98;10.98;;;;;;;29.47;38.49;99879.03;5066006;28;20047;-86
2023/05/22 13:15:35;;;;;;;11.55;10.18;;;;;;;29.47;38.71;99882.59;5066872;28;20056;-87
2023/05/22 13:18:21;;;;;;;11.05;9.32;;;;;;;29.47;38.38;99860.78;5067065;28;20060;-86
2023/05/22 13:21:09;;;;;;;10.00;9.02;;;;;;;29.82;38.55;99886.00;5062972;28;20047;-86
2023/05/22 13:23:48;;;;;;;10.07;9.07;;;;;;;29.92;37.21;99889.16;5085460;28;20080;-86
2023/05/22 13:26:33;;;;;;;12.10;10.40;;;;;;;30.10;38.55;99885.84;5057810;28;20046;-86
2023/05/22 13:29:07;;;;;;;11.88;10.52;;;;;;;30.39;38.46;99887.28;5071533;28;20086;-85
2023/05/22 13:31:56;;;;;;;11.63;10.48;;;;;;;30.45;38.17;99877.38;5063413;28;20048;-84
2023/05/22 13:35:26;;;;;;;12.90;11.23;;;;;;;30.28;37.41;99885.19;5026011;28;20536;-85
2023/05/22 13:38:11;;;;;;;12.43;9.95;;;;;;;29.90;37.00;99872.19;5011274;28;20049;-85
2023/05/22 13:40:51;;;;;;;14.48;10.98;;;;;;;29.84;37.19;99885.81;4996349;28;20425;-85
2023/05/22 13:43:50;;;;;;;12.43;10.95;;;;;;;29.70;37.32;99854.94;5015745;28;20052;-86
2023/05/22 13:46:27;;;;;;;12.00;10.52;;;;;;;29.43;37.65;99848.63;4990500;28;20057;-85
2023/05/22 13:49:08;;;;;;;11.85;10.32;;;;;;;29.48;37.42;99867.06;5011574;28;20478;-87
2023/05/22 13:51:48;;;;;;;11.23;10.13;;;;;;;29.56;37.62;99878.66;4995302;28;20045;-87
2023/05/22 13:54:17;;;;;;;14.93;10.68;;;;;;;29.46;36.71;99875.47;5008533;28;20050;-85
2023/05/22 13:57:03;;;;;;;13.50;10.23;;;;;;;29.23;37.37;99843.09;5025022;28;20089;-85
2023/05/22 13:59:38;;;;;;;17.13;10.00;;;;;;;29.80;37.21;99870.88;5012600;28;20053;-86
2023/05/22 14:02:25;;;;;;;13.70;10.65;;;;;;;30.09;37.10;99840.47;5015576;28;20046;-85
2023/05/22 14:05:09;;;;;;;11.43;9.70;;;;;;;30.47;37.41;99846.06;5004422;28;20046;-84
2023/05/22 14:07:55;;;;;;;14.45;9.75;;;;;;;30.54;36.09;99846.91;5033946;28;20045;-85
2023/05/22 14:10:38;;;;;;;11.02;9.60;;;;;;;30.69;37.01;99852.97;5027957;28;20045;-86
2023/05/22 14:13:28;;;;;;;11.07;9.88;;;;;;;30.80;36.53;99850.63;5066899;28;20043;-86
2023/05/22 14:15:55;;;;;;;12.02;10.10;;;;;;;30.82;36.79;99843.06;5070329;28;20048;-85
2023/05/22 14:18:32;;;;;;;12.02;10.93;;;;;;;30.25;38.52;99837.28;5068909;28;20045;-85
2023/05/22 14:21:12;;;;;;;11.48;10.32;;;;;;;30.23;39.25;99855.78;5068681;28;20127;-87